Time;durP1;ratioP1;P1;durP2;ratioP2;P2;SDS_P1;SDS_P2;PMS_P1;PMS_P2;Temp;Humidity;BMP_temperature;BMP_pressure;BME280_temperature;BME280_humidity;BME280_pressure;Samples;Min_cycle;Max_cycle;Signal;HPM_P1;HPM_P2
2021/09/15 00:00:03;;;;;;;1533.22;779.63;;;;;17.90;100486.00;;;;4818522;29;20054;-83
2021/09/15 00:02:31;;;;;;;398.77;86.72;;;;;17.90;100480.00;;;;4819219;29;20659;-85
2021/09/15 00:05:01;;;;;;;1999.90;999.90;;;;;17.80;100503.00;;;;4819431;29;20106;-84
2021/09/15 00:07:30;;;;;;;239.43;213.52;;;;;17.90;100497.00;;;;4816677;29;20162;-85
2021/09/15 00:09:59;;;;;;;93.68;56.15;;;;;17.90;100498.00;;;;4819527;29;20599;-84
2021/09/15 00:12:28;;;;;;;1999.90;999.90;;;;;17.90;100507.00;;;;4817556;29;20471;-85
2021/09/15 00:14:58;;;;;;;851.38;368.35;;;;;17.90;100512.00;;;;4819048;29;20050;-86
2021/09/15 00:17:27;;;;;;;285.90;212.80;;;;;17.90;100529.00;;;;4818366;29;20069;-83
2021/09/15 00:19:56;;;;;;;1066.97;521.28;;;;;17.90;100537.00;;;;4817610;29;20050;-83
2021/09/15 00:22:25;;;;;;;1506.00;755.35;;;;;17.90;100542.00;;;;4818534;29;20498;-84
2021/09/15 00:24:53;;;;;;;125.57;110.22;;;;;17.90;100550.00;;;;4815662;29;20054;-84
2021/09/15 00:27:22;;;;;;;142.13;124.57;;;;;17.90;100565.00;;;;4816553;29;20046;-83
2021/09/15 00:29:51;;;;;;;306.23;95.82;;;;;17.90;100549.00;;;;4814767;29;20065;-82
2021/09/15 00:32:20;;;;;;;356.55;225.30;;;;;17.90;100538.00;;;;4815477;29;20528;-83
2021/09/15 00:34:49;;;;;;;1999.90;999.90;;;;;17.60;100560.00;;;;4817025;29;20050;-83
2021/09/15 00:37:18;;;;;;;114.15;102.65;;;;;17.50;100587.00;;;;4813582;29;20050;-82
2021/09/15 00:39:47;;;;;;;239.15;122.18;;;;;17.20;100563.00;;;;4815843;29;20640;-81
2021/09/15 00:42:16;;;;;;;411.70;239.80;;;;;17.00;100571.00;;;;4814391;29;20125;-81
2021/09/15 00:44:45;;;;;;;8.05;3.70;;;;;16.80;100588.00;;;;4816848;29;20061;-82
2021/09/15 00:47:14;;;;;;;125.80;82.40;;;;;16.50;100596.00;;;;4816114;29;20137;-82
2021/09/15 00:49:43;;;;;;;1999.90;999.90;;;;;16.40;100597.00;;;;4816128;29;20050;-81
2021/09/15 00:52:12;;;;;;;381.65;172.40;;;;;16.30;100620.00;;;;4813799;29;20416;-81
2021/09/15 00:54:41;;;;;;;189.48;168.68;;;;;16.20;100616.00;;;;4816908;29;20057;-83
2021/09/15 00:57:10;;;;;;;4.40;4.00;;;;;16.20;100598.00;;;;4816571;29;20058;-83
2021/09/15 00:59:40;;;;;;;147.70;80.43;;;;;16.10;100604.00;;;;4813899;29;20137;-79
2021/09/15 01:02:09;;;;;;;47.30;42.65;;;;;16.00;100637.00;;;;4816912;29;20055;-82
2021/09/15 01:04:38;;;;;;;113.53;104.15;;;;;16.00;100618.00;;;;4816519;29;20434;-83
2021/09/15 01:07:09;;;;;;;19.92;18.67;;;;;16.00;100611.00;;;;4817189;29;20065;-81
2021/09/15 01:09:39;;;;;;;1999.90;999.90;;;;;15.90;100609.00;;;;4816718;29;20069;-82
2021/09/15 01:12:13;;;;;;;49.42;46.13;;;;;15.90;100622.00;;;;4815429;29;20068;-81
2021/09/15 01:14:42;;;;;;;734.22;186.73;;;;;15.90;100632.00;;;;4817077;29;20084;-81
2021/09/15 01:17:11;;;;;;;490.83;44.88;;;;;15.90;100642.00;;;;4816310;29;20065;-81
2021/09/15 01:19:40;;;;;;;74.25;19.15;;;;;15.90;100603.00;;;;4816792;29;20050;-80
2021/09/15 01:22:10;;;;;;;66.68;58.78;;;;;15.90;100641.00;;;;4817272;29;20062;-82
2021/09/15 01:24:39;;;;;;;1999.90;999.90;;;;;15.90;100651.00;;;;4817081;29;20199;-84
2021/09/15 01:27:07;;;;;;;404.70;205.38;;;;;15.90;100651.00;;;;4816160;29;20058;-80
2021/09/15 01:29:37;;;;;;;55.10;49.65;;;;;15.90;100651.00;;;;4816128;29;20058;-83
2021/09/15 01:32:09;;;;;;;70.85;44.08;;;;;15.90;100657.00;;;;4816472;29;20046;-81
2021/09/15 01:34:44;;;;;;;204.88;44.47;;;;;15.80;100650.00;;;;4815565;29;20055;-81
2021/09/15 01:37:16;;;;;;;166.98;130.10;;;;;15.80;100652.00;;;;4816615;29;20085;-84
2021/09/15 01:39:45;;;;;;;228.30;162.52;;;;;15.80;100664.00;;;;4816773;29;20056;-83
2021/09/15 01:42:14;;;;;;;208.77;52.33;;;;;15.80;100656.00;;;;4815466;29;20055;-82
2021/09/15 01:44:45;;;;;;;1037.50;523.10;;;;;15.80;100679.00;;;;4816833;29;20435;-83
2021/09/15 01:47:15;;;;;;;;;;;;;15.80;100671.00;;;;4817163;29;20527;-79
2021/09/15 01:49:45;;;;;;;1999.90;999.90;;;;;15.70;100669.00;;;;4818594;29;19966;-83
2021/09/15 01:52:15;;;;;;;1999.90;999.90;;;;;15.60;100670.00;;;;4820140;29;20050;-82
2021/09/15 01:54:47;;;;;;;3.30;2.80;;;;;15.60;100686.00;;;;4818208;29;20491;-81
2021/09/15 01:57:16;;;;;;;120.30;60.25;;;;;15.60;100657.00;;;;4819803;29;20042;-80
2021/09/15 01:59:45;;;;;;;513.10;138.75;;;;;15.50;100684.00;;;;4820022;29;20061;-82
2021/09/15 02:02:14;;;;;;;351.85;231.18;;;;;15.50;100651.00;;;;4819575;29;20054;-80
2021/09/15 02:04:43;;;;;;;365.52;137.43;;;;;15.50;100687.00;;;;4819824;29;20050;-81
2021/09/15 02:07:12;;;;;;;90.55;81.45;;;;;15.40;100685.00;;;;4819185;29;20089;-80
2021/09/15 02:09:41;;;;;;;219.95;55.30;;;;;15.40;100714.00;;;;4819639;29;20515;-82
2021/09/15 02:12:10;;;;;;;88.60;42.97;;;;;15.40;100688.00;;;;4820023;29;20146;-81
2021/09/15 02:14:39;;;;;;;1999.90;999.90;;;;;15.40;100706.00;;;;4819634;29;20519;-79
2021/09/15 02:17:08;;;;;;;604.67;338.38;;;;;15.30;100713.00;;;;4819437;29;20055;-83
2021/09/15 02:19:37;;;;;;;1546.95;771.25;;;;;15.30;100732.00;;;;4819220;29;20047;-83
2021/09/15 02:22:06;;;;;;;1999.90;999.90;;;;;15.30;100725.00;;;;4819587;29;20137;-83
2021/09/15 02:24:34;;;;;;;1999.90;999.90;;;;;15.30;100743.00;;;;4819580;29;20528;-82
2021/09/15 02:27:03;;;;;;;1579.65;775.70;;;;;15.30;100763.00;;;;4817896;29;20055;-81
2021/09/15 02:29:32;;;;;;;1999.90;999.90;;;;;15.30;100760.00;;;;4819594;29;20058;-81
2021/09/15 02:32:01;;;;;;;1999.90;999.90;;;;;15.20;100766.00;;;;4819198;29;20050;-83
2021/09/15 02:34:30;;;;;;;691.63;398.83;;;;;15.10;100752.00;;;;4819454;29;20058;-77
2021/09/15 02:36:59;;;;;;;1999.90;999.90;;;;;15.00;100754.00;;;;4820111;29;20073;-82
2021/09/15 02:39:30;;;;;;;1519.90;765.03;;;;;14.80;100767.00;;;;4819311;29;20536;-82
2021/09/15 02:41:59;;;;;;;748.07;349.73;;;;;14.70;100766.00;;;;4833515;29;20061;-81
2021/09/15 02:44:28;;;;;;;65.32;58.47;;;;;14.60;100766.00;;;;4818892;29;20747;-82
2021/09/15 02:46:57;;;;;;;20.33;16.30;;;;;14.50;100773.00;;;;4832860;29;20061;-81
2021/09/15 02:49:27;;;;;;;1037.78;524.45;;;;;14.40;100794.00;;;;4819191;29;20058;-81
2021/09/15 02:51:56;;;;;;;1999.90;999.90;;;;;14.30;100792.00;;;;4818764;29;20051;-81
2021/09/15 02:54:25;;;;;;;1999.90;999.90;;;;;14.20;100818.00;;;;4817725;29;20522;-81
2021/09/15 02:56:54;;;;;;;364.20;216.48;;;;;14.10;100803.00;;;;4818738;29;20066;-82
2021/09/15 02:59:23;;;;;;;1535.13;763.05;;;;;14.10;100825.00;;;;4819341;29;20458;-80
2021/09/15 03:01:51;;;;;;;66.70;45.85;;;;;14.00;100832.00;;;;4818361;29;20415;-80
2021/09/15 03:04:20;;;;;;;1506.72;752.80;;;;;14.00;100805.00;;;;4820326;29;20138;-80
2021/09/15 03:06:49;;;;;;;1999.90;999.90;;;;;14.00;100821.00;;;;4818430;29;20064;-81
2021/09/15 03:09:18;;;;;;;1500.45;750.42;;;;;14.00;100829.00;;;;4818760;29;20088;-82
2021/09/15 03:11:47;;;;;;;1999.90;999.90;;;;;14.00;100832.00;;;;4818548;29;20046;-80
2021/09/15 03:14:16;;;;;;;1999.90;999.90;;;;;14.00;100817.00;;;;4818644;29;20054;-81
2021/09/15 03:16:45;;;;;;;1083.22;511.15;;;;;14.00;100813.00;;;;4818256;29;20442;-80
2021/09/15 03:19:14;;;;;;;1999.90;999.90;;;;;14.00;100807.00;;;;4818604;29;20553;-80
2021/09/15 03:21:44;;;;;;;405.52;243.77;;;;;13.90;100822.00;;;;4818605;29;20503;-81
2021/09/15 03:24:13;;;;;;;1509.38;757.30;;;;;13.90;100789.00;;;;4818651;29;20072;-80
2021/09/15 03:26:42;;;;;;;73.80;54.17;;;;;13.90;100817.00;;;;4818399;29;20062;-81
2021/09/15 03:29:11;;;;;;;127.80;95.18;;;;;14.00;100833.00;;;;4818703;29;20056;-79
2021/09/15 03:31:40;;;;;;;94.25;82.03;;;;;13.90;100834.00;;;;4818571;29;20063;-81
2021/09/15 03:34:09;;;;;;;1999.90;999.90;;;;;13.90;100852.00;;;;4817290;29;20055;-80
2021/09/15 03:36:38;;;;;;;14.23;13.32;;;;;14.00;100819.00;;;;4817966;29;20464;-80
2021/09/15 03:39:07;;;;;;;1040.03;515.05;;;;;13.90;100827.00;;;;4818203;29;20058;-80
2021/09/15 03:41:36;;;;;;;457.80;125.45;;;;;13.90;100811.00;;;;4818595;29;20050;-80
2021/09/15 03:44:05;;;;;;;176.32;79.93;;;;;13.90;100838.00;;;;4817194;29;20054;-79
2021/09/15 03:46:34;;;;;;;1999.90;999.90;;;;;13.90;100832.00;;;;4818638;29;20061;-81
2021/09/15 03:49:03;;;;;;;3.60;2.88;;;;;13.90;100827.00;;;;4818294;29;20060;-80
2021/09/15 03:51:33;;;;;;;94.20;85.68;;;;;13.90;100858.00;;;;4818318;29;20856;-80
2021/09/15 03:54:02;;;;;;;1999.90;999.90;;;;;13.90;100833.00;;;;4817283;29;20046;-79
2021/09/15 03:56:30;;;;;;;93.28;84.80;;;;;13.90;100839.00;;;;4817750;29;20058;-80
2021/09/15 03:58:59;;;;;;;17.58;16.33;;;;;13.90;100856.00;;;;4817994;29;20537;-80
2021/09/15 04:01:28;;;;;;;683.70;304.42;;;;;14.00;100863.00;;;;4817650;29;20055;-80
2021/09/15 04:03:57;;;;;;;55.42;17.23;;;;;14.00;100860.00;;;;4818215;29;20061;-80
2021/09/15 04:06:26;;;;;;;235.70;104.10;;;;;14.00;100885.00;;;;4818090;29;20138;-78
2021/09/15 04:08:55;;;;;;;1999.90;999.90;;;;;14.00;100873.00;;;;4817989;29;20058;-80
2021/09/15 04:11:24;;;;;;;93.80;39.80;;;;;13.90;100877.00;;;;4817980;29;20050;-80
2021/09/15 04:13:53;;;;;;;265.73;239.93;;;;;13.90;100885.00;;;;4817090;29;20141;-80
2021/09/15 04:16:22;;;;;;;1999.90;999.90;;;;;13.90;100873.00;;;;4816694;29;20083;-80
2021/09/15 04:18:51;;;;;;;1580.38;768.13;;;;;14.00;100880.00;;;;4817193;29;20872;-80
2021/09/15 04:21:20;;;;;;;456.65;244.88;;;;;14.00;100890.00;;;;4815825;29;20158;-79
2021/09/15 04:32:09;;;;;;;0.20;0.20;;;;;13.90;100882.00;;;;4869840;29;20049;-80
2021/09/15 04:34:37;;;;;;;46.13;42.58;;;;;13.90;100909.00;;;;4826410;29;20058;-80
2021/09/15 04:37:06;;;;;;;1999.90;999.90;;;;;13.90;100904.00;;;;4815255;29;20069;-79
2021/09/15 04:39:35;;;;;;;1999.90;999.90;;;;;13.90;100894.00;;;;4830740;29;20515;-79
2021/09/15 04:42:04;;;;;;;120.28;77.80;;;;;13.80;100918.00;;;;4817091;29;20055;-80
2021/09/15 04:44:33;;;;;;;1999.90;999.90;;;;;13.70;100903.00;;;;4816823;29;20077;-79
2021/09/15 04:47:02;;;;;;;1999.90;999.90;;;;;13.60;100901.00;;;;4816477;29;20522;-79
2021/09/15 04:49:31;;;;;;;300.15;194.07;;;;;13.50;100926.00;;;;4816087;29;20590;-81
2021/09/15 04:52:00;;;;;;;184.05;66.25;;;;;13.50;100898.00;;;;4816784;29;20729;-79
2021/09/15 04:54:29;;;;;;;1014.63;513.67;;;;;13.40;100891.00;;;;4816344;29;20058;-81
2021/09/15 04:56:58;;;;;;;105.38;95.25;;;;;13.40;100894.00;;;;4815787;29;20058;-82
2021/09/15 04:59:27;;;;;;;1065.93;529.53;;;;;13.40;100911.00;;;;4816471;29;20050;-81
2021/09/15 05:01:55;;;;;;;237.02;163.15;;;;;13.30;100926.00;;;;4816497;29;20050;-82
2021/09/15 05:04:25;;;;;;;1045.68;536.88;;;;;13.30;100916.00;;;;4816878;29;20062;-82
2021/09/15 05:06:55;;;;;;;1510.30;759.58;;;;;13.30;100915.00;;;;4816234;29;20082;-83
2021/09/15 05:09:24;;;;;;;1999.90;999.90;;;;;13.30;100898.00;;;;4815464;29;20787;-82
2021/09/15 05:11:53;;;;;;;1335.70;668.90;;;;;13.30;100907.00;;;;4747959;29;2061807;-81
2021/09/15 05:14:21;;;;;;;26.42;24.73;;;;;13.30;100888.00;;;;4817194;29;20061;-81
2021/09/15 05:16:50;;;;;;;11.80;10.98;;;;;13.20;100906.00;;;;4817126;29;20089;-81
2021/09/15 05:19:19;;;;;;;19.10;17.77;;;;;13.20;100897.00;;;;4817511;29;20054;-82
2021/09/15 05:21:48;;;;;;;1014.10;512.63;;;;;13.20;100885.00;;;;4817038;29;20515;-81
2021/09/15 05:24:17;;;;;;;158.30;39.70;;;;;13.20;100915.00;;;;4818536;29;20559;-81
2021/09/15 05:26:47;;;;;;;1999.90;999.90;;;;;13.20;100896.00;;;;4820316;29;20054;-81
2021/09/15 05:29:16;;;;;;;408.92;125.57;;;;;13.20;100885.00;;;;4820004;29;20766;-80
2021/09/15 05:31:45;;;;;;;1502.82;752.53;;;;;13.20;100907.00;;;;4820118;29;20057;-80
2021/09/15 05:34:14;;;;;;;1999.90;999.90;;;;;13.10;100906.00;;;;4820635;29;20061;-81
2021/09/15 05:36:43;;;;;;;147.40;91.68;;;;;13.10;100914.00;;;;4819995;29;20054;-81
2021/09/15 05:39:12;;;;;;;228.40;209.52;;;;;13.10;100908.00;;;;4819977;29;20614;-81
2021/09/15 05:41:41;;;;;;;593.63;335.33;;;;;13.10;100891.00;;;;4820828;29;20062;-80
2021/09/15 05:44:10;;;;;;;1999.90;999.90;;;;;13.00;100911.00;;;;4822716;29;20149;-81
2021/09/15 05:46:39;;;;;;;423.05;180.52;;;;;13.10;100910.00;;;;4827781;29;20047;-80
2021/09/15 05:49:08;;;;;;;1511.05;754.05;;;;;13.00;100903.00;;;;4827503;29;20054;-81
2021/09/15 05:51:37;;;;;;;150.07;111.95;;;;;13.00;100911.00;;;;4827221;29;20065;-81
2021/09/15 05:54:08;;;;;;;181.23;156.30;;;;;13.00;100929.00;;;;4826686;29;20125;-81
2021/09/15 05:56:38;;;;;;;258.05;178.50;;;;;13.00;100930.00;;;;4820094;29;21108;-81
2021/09/15 05:59:07;;;;;;;1999.90;999.90;;;;;13.10;100948.00;;;;4820307;29;20165;-81
2021/09/15 06:01:36;;;;;;;1071.28;554.67;;;;;13.00;100949.00;;;;4819900;29;20055;-80
2021/09/15 06:04:05;;;;;;;1999.90;999.90;;;;;12.90;100949.00;;;;4818879;29;20050;-80
2021/09/15 06:06:34;;;;;;;177.93;92.75;;;;;12.90;100934.00;;;;4833875;29;20054;-80
2021/09/15 06:09:03;;;;;;;8.93;7.53;;;;;13.00;100934.00;;;;4819841;29;20177;-80
2021/09/15 06:11:32;;;;;;;297.48;151.35;;;;;12.90;100947.00;;;;4819935;29;20055;-80
2021/09/15 06:14:01;;;;;;;66.60;61.60;;;;;12.90;100956.00;;;;4819872;29;20571;-80
2021/09/15 06:16:30;;;;;;;109.57;75.30;;;;;12.90;100956.00;;;;4819603;29;20530;-81
2021/09/15 06:18:59;;;;;;;346.60;168.43;;;;;13.00;100956.00;;;;4819231;29;20069;-80
2021/09/15 06:21:28;;;;;;;104.75;94.05;;;;;13.10;100954.00;;;;4819583;29;20058;-80
2021/09/15 06:23:57;;;;;;;1999.90;999.90;;;;;13.00;100926.00;;;;4819633;29;20062;-80
2021/09/15 06:26:26;;;;;;;1999.90;999.90;;;;;12.90;100957.00;;;;4819703;29;20060;-80
2021/09/15 06:28:56;;;;;;;1999.90;999.90;;;;;12.90;100966.00;;;;4820290;29;20059;-79
2021/09/15 06:31:25;;;;;;;1999.90;999.90;;;;;12.90;100956.00;;;;4819476;29;20058;-81
2021/09/15 06:33:54;;;;;;;171.00;153.32;;;;;12.90;100942.00;;;;4819696;29;20070;-80
2021/09/15 06:36:23;;;;;;;270.27;120.25;;;;;12.80;100966.00;;;;4819286;29;20059;-82
2021/09/15 06:38:52;;;;;;;73.70;43.40;;;;;12.90;100961.00;;;;4819336;29;20062;-80
2021/09/15 06:41:21;;;;;;;137.50;113.15;;;;;12.90;100937.00;;;;4819235;29;20065;-81
2021/09/15 06:43:50;;;;;;;1999.90;999.90;;;;;12.80;100946.00;;;;4819834;29;20050;-81
2021/09/15 06:46:19;;;;;;;41.10;30.58;;;;;12.80;100977.00;;;;4818857;29;20055;-80
2021/09/15 06:48:47;;;;;;;23.80;21.88;;;;;12.70;100961.00;;;;4832725;29;20068;-82
2021/09/15 06:51:17;;;;;;;135.75;41.00;;;;;12.70;100982.00;;;;4819478;29;20069;-80
2021/09/15 06:53:47;;;;;;;163.48;123.53;;;;;12.70;100973.00;;;;4818593;29;20086;-81
2021/09/15 06:56:16;;;;;;;118.68;74.30;;;;;12.60;101005.00;;;;4818761;29;20061;-81
2021/09/15 06:58:45;;;;;;;42.75;13.30;;;;;12.60;100988.00;;;;4818652;29;20061;-81
2021/09/15 07:01:14;;;;;;;131.95;65.28;;;;;12.60;101011.00;;;;4819435;29;20062;-80
2021/09/15 07:03:43;;;;;;;73.00;66.65;;;;;12.60;100992.00;;;;4818657;29;20043;-81
2021/09/15 07:06:11;;;;;;;221.52;192.57;;;;;12.60;100988.00;;;;4818653;29;20150;-81
2021/09/15 07:08:40;;;;;;;95.65;85.00;;;;;12.60;100999.00;;;;4819044;29;20056;-81
2021/09/15 07:11:10;;;;;;;24.63;23.25;;;;;12.60;101006.00;;;;4818613;29;20054;-79
2021/09/15 07:13:39;;;;;;;1999.90;999.90;;;;;12.60;100991.00;;;;4818890;29;20066;-81
2021/09/15 07:16:08;;;;;;;70.40;56.00;;;;;12.50;101006.00;;;;4817607;29;20050;-81
2021/09/15 07:18:39;;;;;;;1999.90;999.90;;;;;12.50;101005.00;;;;4818858;29;20530;-81
2021/09/15 07:21:08;;;;;;;1999.90;999.90;;;;;12.50;100987.00;;;;4818490;29;20054;-81
2021/09/15 07:23:37;;;;;;;101.22;87.45;;;;;12.50;100996.00;;;;4818377;29;20055;-80
2021/09/15 07:26:06;;;;;;;1501.15;751.10;;;;;12.50;101017.00;;;;4817328;29;20057;-81
2021/09/15 07:28:35;;;;;;;294.00;141.10;;;;;12.50;101029.00;;;;4819152;29;20050;-81
2021/09/15 07:31:03;;;;;;;118.15;70.28;;;;;12.40;101026.00;;;;4818713;29;20427;-81
2021/09/15 07:33:32;;;;;;;1999.90;999.90;;;;;12.30;101024.00;;;;4818435;29;20107;-81
2021/09/15 07:36:03;;;;;;;1999.90;999.90;;;;;12.30;101046.00;;;;4817866;29;20058;-82
2021/09/15 07:38:33;;;;;;;1999.90;999.90;;;;;12.30;101053.00;;;;4818538;29;20137;-81
2021/09/15 07:41:02;;;;;;;1999.90;999.90;;;;;12.30;101045.00;;;;4818980;29;20422;-80
2021/09/15 07:43:31;;;;;;;1999.90;999.90;;;;;12.40;101047.00;;;;4818078;29;20058;-81
2021/09/15 07:46:00;;;;;;;182.27;81.20;;;;;12.40;101071.00;;;;4817272;29;20065;-81
2021/09/15 07:48:29;;;;;;;1999.90;999.90;;;;;12.40;101042.00;;;;4816649;29;20066;-81
2021/09/15 07:50:58;;;;;;;90.80;84.45;;;;;12.30;101057.00;;;;4818414;29;20416;-81
2021/09/15 07:53:27;;;;;;;1999.90;999.90;;;;;12.40;101075.00;;;;4817986;29;20050;-80
2021/09/15 07:55:56;;;;;;;1999.90;999.90;;;;;12.40;101081.00;;;;4818300;29;20050;-81
2021/09/15 07:58:25;;;;;;;159.30;144.50;;;;;12.40;101061.00;;;;4818275;29;20050;-79
2021/09/15 08:00:55;;;;;;;38.40;35.90;;;;;12.40;101089.00;;;;4816888;29;20062;-81
2021/09/15 08:03:24;;;;;;;23.77;13.20;;;;;12.40;101101.00;;;;4818290;29;20061;-80
2021/09/15 08:05:57;;;;;;;1999.90;999.90;;;;;12.50;101101.00;;;;4817863;29;20054;-80
2021/09/15 08:08:26;;;;;;;6.45;6.03;;;;;12.60;101107.00;;;;4818093;29;20057;-80
2021/09/15 08:10:55;;;;;;;280.48;63.97;;;;;12.60;101089.00;;;;4817925;29;20083;-81
2021/09/15 08:13:25;;;;;;;1999.90;999.90;;;;;12.70;101122.00;;;;4817275;29;20059;-81
2021/09/15 08:15:54;;;;;;;115.05;7.68;;;;;12.60;101126.00;;;;4817840;29;20058;-80
2021/09/15 08:18:23;;;;;;;241.88;127.43;;;;;12.70;101120.00;;;;4817810;29;20061;-80
2021/09/15 08:21:01;;;;;;;427.92;154.93;;;;;12.70;101110.00;;;;4817882;29;20050;-81
2021/09/15 08:23:30;;;;;;;6.53;1.47;;;;;12.60;101129.00;;;;4816631;29;20062;-78
2021/09/15 08:25:59;;;;;;;309.20;66.95;;;;;12.70;101111.00;;;;4818266;29;20516;-80
2021/09/15 08:28:28;;;;;;;814.28;327.83;;;;;12.70;101154.00;;;;4817853;29;20642;-80
2021/09/15 08:30:57;;;;;;;43.53;36.60;;;;;12.60;101130.00;;;;4817593;29;20050;-80
2021/09/15 08:33:26;;;;;;;125.32;115.70;;;;;12.60;101135.00;;;;4817740;29;20061;-79
2021/09/15 08:35:54;;;;;;;133.07;121.72;;;;;12.70;101166.00;;;;4817998;29;20507;-81
2021/09/15 08:38:24;;;;;;;1999.90;999.90;;;;;12.60;101152.00;;;;4817524;29;20503;-81
2021/09/15 08:40:53;;;;;;;261.73;50.38;;;;;12.60;101158.00;;;;4817744;29;20058;-80
2021/09/15 08:43:23;;;;;;;80.07;51.22;;;;;12.60;101165.00;;;;4817814;29;20054;-81
2021/09/15 08:45:55;;;;;;;194.48;39.35;;;;;12.60;101169.00;;;;4817772;29;20459;-80
2021/09/15 08:48:25;;;;;;;38.90;28.38;;;;;12.60;101163.00;;;;4817538;29;20113;-80
2021/09/15 08:50:54;;;;;;;5.13;3.47;;;;;12.60;101188.00;;;;4817494;29;20518;-79
2021/09/15 08:53:23;;;;;;;1999.90;999.90;;;;;12.60;101176.00;;;;4817245;29;20438;-81
2021/09/15 08:55:52;;;;;;;739.13;402.58;;;;;12.60;101205.00;;;;4817596;29;20533;-81
2021/09/15 08:58:21;;;;;;;1055.10;516.22;;;;;12.60;101214.00;;;;4817557;29;20545;-81
2021/09/15 09:00:50;;;;;;;419.17;116.70;;;;;12.50;101197.00;;;;4819603;29;20055;-80
2021/09/15 09:03:19;;;;;;;698.47;311.02;;;;;12.50;101187.00;;;;4820745;29;20082;-79
2021/09/15 09:05:48;;;;;;;186.63;50.85;;;;;12.50;101187.00;;;;4820603;29;20054;-81
2021/09/15 09:08:24;;;;;;;137.57;55.25;;;;;12.60;101199.00;;;;4820516;29;20894;-80
2021/09/15 09:10:54;;;;;;;100.30;38.35;;;;;12.60;101209.00;;;;4820556;29;20111;-80
2021/09/15 09:13:23;;;;;;;175.38;156.20;;;;;12.50;101239.00;;;;4820568;29;20070;-80
2021/09/15 09:15:52;;;;;;;131.07;28.52;;;;;12.50;101251.00;;;;4820887;29;20062;-80
2021/09/15 09:18:21;;;;;;;207.25;176.75;;;;;12.50;101229.00;;;;4820168;29;20062;-80
2021/09/15 09:20:50;;;;;;;1999.90;999.90;;;;;12.40;101252.00;;;;4819857;29;20065;-80
2021/09/15 09:23:40;;;;;;;69.15;53.22;;;;;12.50;101252.00;;;;4820454;29;20438;-79
2021/09/15 09:26:09;;;;;;;25.23;23.38;;;;;12.50;101229.00;;;;4820536;29;20065;-80
2021/09/15 09:28:41;;;;;;;70.65;32.65;;;;;12.60;101273.00;;;;4819999;29;20058;-79
2021/09/15 09:31:12;;;;;;;1081.18;572.20;;;;;12.60;101240.00;;;;4820553;29;20054;-80
2021/09/15 09:33:40;;;;;;;1999.90;999.90;;;;;12.60;101257.00;;;;4820675;29;20061;-80
2021/09/15 09:36:10;;;;;;;1999.90;999.90;;;;;12.60;101252.00;;;;4820318;29;20515;-79
2021/09/15 09:38:46;;;;;;;51.65;32.22;;;;;12.70;101238.00;;;;4820648;29;20439;-80
2021/09/15 09:41:19;;;;;;;1029.50;514.60;;;;;12.60;101252.00;;;;4819911;29;20054;-80
2021/09/15 09:43:53;;;;;;;1999.90;999.90;;;;;12.70;101276.00;;;;4820135;29;20066;-80
2021/09/15 09:46:32;;;;;;;538.30;265.90;;;;;12.80;101269.00;;;;4818609;29;20058;-80
2021/09/15 09:49:03;;;;;;;33.25;14.20;;;;;12.80;101259.00;;;;4819990;29;20146;-80
2021/09/15 09:51:44;;;;;;;51.42;47.80;;;;;12.90;101265.00;;;;4819432;29;20053;-79
2021/09/15 09:54:29;;;;;;;72.43;44.00;;;;;12.90;101264.00;;;;4819094;29;20077;-79
2021/09/15 09:56:58;;;;;;;327.58;112.95;;;;;12.90;101273.00;;;;4819077;29;20054;-79
2021/09/15 09:59:27;;;;;;;106.50;24.60;;;;;12.90;101284.00;;;;4819492;29;20057;-81
2021/09/15 10:01:59;;;;;;;216.35;57.13;;;;;13.00;101284.00;;;;4820392;29;20505;-80
2021/09/15 10:04:28;;;;;;;29.65;27.33;;;;;13.00;101272.00;;;;4819832;29;20500;-79
2021/09/15 10:06:57;;;;;;;12.55;6.22;;;;;13.00;101294.00;;;;4819478;29;20146;-80
2021/09/15 10:09:27;;;;;;;90.95;41.20;;;;;13.10;101288.00;;;;4818927;29;20662;-80
2021/09/15 10:11:57;;;;;;;228.45;142.82;;;;;13.20;101279.00;;;;4819377;29;20203;-80
2021/09/15 10:14:27;;;;;;;61.72;49.28;;;;;13.20;101306.00;;;;4819729;29;20472;-79
2021/09/15 10:17:07;;;;;;;1999.90;999.90;;;;;13.20;101276.00;;;;4816993;29;20514;-81
2021/09/15 10:19:45;;;;;;;24.53;22.90;;;;;13.20;101282.00;;;;4818954;29;20069;-80
2021/09/15 10:22:27;;;;;;;1999.90;999.90;;;;;13.20;101283.00;;;;4819094;29;20295;-80
2021/09/15 10:24:58;;;;;;;1999.90;999.90;;;;;13.30;101286.00;;;;4819543;29;20058;-79
2021/09/15 10:27:30;;;;;;;1999.90;999.90;;;;;13.40;101317.00;;;;4819725;29;20058;-79
2021/09/15 10:30:11;;;;;;;1547.50;769.05;;;;;13.50;101298.00;;;;4817736;29;20716;-80
2021/09/15 10:32:47;;;;;;;20.98;11.85;;;;;13.60;101280.00;;;;4818200;29;20057;-80
2021/09/15 10:35:46;;;;;;;63.85;57.33;;;;;13.70;101319.00;;;;4819516;29;20061;-79
2021/09/15 10:38:15;;;;;;;108.82;98.43;;;;;13.70;101304.00;;;;4819041;29;20058;-79
2021/09/15 10:40:45;;;;;;;18.08;16.17;;;;;13.70;101309.00;;;;4819235;29;20054;-79
2021/09/15 10:43:43;;;;;;;105.25;71.80;;;;;13.90;101331.00;;;;4819150;29;20054;-79
2021/09/15 10:46:20;;;;;;;1024.15;519.15;;;;;14.10;101313.00;;;;4818950;29;20519;-79
2021/09/15 10:49:32;;;;;;;0.00;0.00;;;;;14.20;101332.00;;;;4833694;29;20054;-79
2021/09/15 10:52:10;;;;;;;1999.90;999.90;;;;;14.30;101335.00;;;;4815272;29;20058;-79
2021/09/15 10:54:46;;;;;;;1999.90;999.90;;;;;14.50;101325.00;;;;4819054;29;20551;-80
2021/09/15 10:57:16;;;;;;;1999.90;999.90;;;;;14.50;101299.00;;;;4819135;29;20446;-79
2021/09/15 11:00:06;;;;;;;1999.90;999.90;;;;;14.70;101318.00;;;;4818942;29;20066;-80
2021/09/15 11:02:42;;;;;;;1999.90;999.90;;;;;15.10;101296.00;;;;4818387;29;20495;-80
2021/09/15 11:05:29;;;;;;;1999.90;999.90;;;;;15.30;101304.00;;;;4818824;29;20144;-79
2021/09/15 11:08:03;;;;;;;1565.28;780.00;;;;;15.80;101243.00;;;;4819431;29;20146;-79
2021/09/15 11:10:38;;;;;;;45.28;39.80;;;;;16.40;101275.00;;;;4818801;29;20476;-78
2021/09/15 11:13:39;;;;;;;551.05;295.10;;;;;16.40;101288.00;;;;4819525;29;20062;-78
2021/09/15 11:16:35;;;;;;;41.30;37.05;;;;;16.30;101326.00;;;;4818801;29;20077;-79
2021/09/15 11:19:16;;;;;;;666.78;319.13;;;;;16.00;101307.00;;;;4818110;29;20464;-78
2021/09/15 11:21:46;;;;;;;39.65;36.97;;;;;16.60;101331.00;;;;4818147;29;20082;-77
2021/09/15 11:24:21;;;;;;;713.07;369.93;;;;;16.00;101352.00;;;;4818623;29;20541;-79
2021/09/15 11:27:17;;;;;;;1999.90;999.90;;;;;15.40;101362.00;;;;4818614;29;20054;-77
2021/09/15 11:29:53;;;;;;;1999.90;999.90;;;;;15.90;101266.00;;;;4818589;29;20061;-78
2021/09/15 11:32:23;;;;;;;1999.90;999.90;;;;;17.60;101233.00;;;;4818615;29;20054;-77
2021/09/15 11:34:54;;;;;;;1999.90;999.90;;;;;17.50;101298.00;;;;4818459;29;20058;-77
2021/09/15 11:37:31;;;;;;;1999.90;999.90;;;;;17.70;101257.00;;;;4818870;29;20069;-77
2021/09/15 11:40:06;;;;;;;592.80;335.13;;;;;17.60;101311.00;;;;4817833;29;20096;-77
2021/09/15 11:42:36;;;;;;;553.50;299.42;;;;;17.00;101295.00;;;;4817254;29;20076;-77
2021/09/15 11:45:21;;;;;;;120.93;110.05;;;;;18.10;101175.00;;;;4818530;29;20054;-77
2021/09/15 11:47:55;;;;;;;1999.90;999.90;;;;;20.20;101158.00;;;;4818078;29;20062;-77
2021/09/15 11:50:30;;;;;;;122.32;83.60;;;;;21.00;101236.00;;;;4817929;29;20412;-78
2021/09/15 11:53:11;;;;;;;1999.90;999.90;;;;;20.20;101219.00;;;;4818408;29;20054;-77
2021/09/15 11:55:51;;;;;;;1999.90;999.90;;;;;21.40;101088.00;;;;4818540;29;20630;-77
2021/09/15 11:58:25;;;;;;;1999.90;999.90;;;;;23.00;101094.00;;;;4831921;29;20062;-78
2021/09/15 12:00:54;;;;;;;1999.90;999.90;;;;;22.00;101140.00;;;;4818688;29;20794;-78